sensor_id;sensor_type;location;lat;lon;timestamp;P1;durP1;ratioP1;P2;durP2;ratioP2
49582;SDS011;36329;48.816;44.624;2023-09-30T00:01:02;14.9;;;4.2;;
49582;SDS011;36329;48.816;44.624;2023-09-30T00:04:10;15.2;;;4.7;;
49582;SDS011;36329;48.816;44.624;2023-09-30T00:07:12;13.2;;;4.5;;
49582;SDS011;36329;48.816;44.624;2023-09-30T00:10:14;11.2;;;4;;
49582;SDS011;36329;48.816;44.624;2023-09-30T00:13:16;12.3;;;4.5;;
49582;SDS011;36329;48.816;44.624;2023-09-30T00:16:18;12;;;4.5;;
49582;SDS011;36329;48.816;44.624;2023-09-30T00:19:20;12.9;;;4.2;;
49582;SDS011;36329;48.816;44.624;2023-09-30T00:22:22;18.6;;;4.9;;
49582;SDS011;36329;48.816;44.624;2023-09-30T00:25:24;17;;;5;;
49582;SDS011;36329;48.816;44.624;2023-09-30T00:28:26;13.8;;;4.6;;
49582;SDS011;36329;48.816;44.624;2023-09-30T00:31:28;17.2;;;5.2;;
49582;SDS011;36329;48.816;44.624;2023-09-30T00:34:32;16.5;;;4.8;;
49582;SDS011;36329;48.816;44.624;2023-09-30T00:37:33;19.6;;;5.1;;
49582;SDS011;36329;48.816;44.624;2023-09-30T00:40:35;15.5;;;5;;
49582;SDS011;36329;48.816;44.624;2023-09-30T00:43:37;23.8;;;5.2;;
49582;SDS011;36329;48.816;44.624;2023-09-30T00:46:39;19.2;;;5;;
49582;SDS011;36329;48.816;44.624;2023-09-30T00:49:47;17.1;;;5.2;;
49582;SDS011;36329;48.816;44.624;2023-09-30T00:52:56;14.2;;;4.9;;
49582;SDS011;36329;48.816;44.624;2023-09-30T00:55:59;11.6;;;4.9;;
49582;SDS011;36329;48.816;44.624;2023-09-30T00:59:02;18.5;;;4.8;;
49582;SDS011;36329;48.816;44.624;2023-09-30T01:02:04;17.5;;;4.8;;
49582;SDS011;36329;48.816;44.624;2023-09-30T01:05:06;14.7;;;5.1;;
49582;SDS011;36329;48.816;44.624;2023-09-30T01:08:08;10.7;;;5.3;;
49582;SDS011;36329;48.816;44.624;2023-09-30T01:11:10;16.5;;;5.4;;
49582;SDS011;36329;48.816;44.624;2023-09-30T01:17:31;14;;;5.2;;
49582;SDS011;36329;48.816;44.624;2023-09-30T01:20:33;13.4;;;5.2;;
49582;SDS011;36329;48.816;44.624;2023-09-30T01:23:35;13.8;;;5.6;;
49582;SDS011;36329;48.816;44.624;2023-09-30T01:26:37;12.5;;;5.3;;
49582;SDS011;36329;48.816;44.624;2023-09-30T01:29:39;8.6;;;4.8;;
49582;SDS011;36329;48.816;44.624;2023-09-30T01:32:41;10.9;;;5.1;;
49582;SDS011;36329;48.816;44.624;2023-09-30T01:35:43;10.3;;;4.8;;
49582;SDS011;36329;48.816;44.624;2023-09-30T01:38:44;16.3;;;4.9;;
49582;SDS011;36329;48.816;44.624;2023-09-30T01:41:46;14;;;5;;
49582;SDS011;36329;48.816;44.624;2023-09-30T01:44:48;13.5;;;4.8;;
49582;SDS011;36329;48.816;44.624;2023-09-30T01:47:50;10.8;;;4.6;;
49582;SDS011;36329;48.816;44.624;2023-09-30T01:50:52;12.8;;;4.7;;
49582;SDS011;36329;48.816;44.624;2023-09-30T01:53:54;15.5;;;4.5;;
49582;SDS011;36329;48.816;44.624;2023-09-30T01:56:56;13.7;;;4.6;;
49582;SDS011;36329;48.816;44.624;2023-09-30T01:59:57;14.6;;;4.8;;
49582;SDS011;36329;48.816;44.624;2023-09-30T02:02:59;8.7;;;4.1;;
49582;SDS011;36329;48.816;44.624;2023-09-30T02:06:01;12.9;;;4.5;;
49582;SDS011;36329;48.816;44.624;2023-09-30T02:09:03;15.6;;;4.5;;
49582;SDS011;36329;48.816;44.624;2023-09-30T02:12:05;12.8;;;4.3;;
49582;SDS011;36329;48.816;44.624;2023-09-30T02:15:08;15.5;;;4.6;;
49582;SDS011;36329;48.816;44.624;2023-09-30T02:18:12;8.3;;;4.3;;
49582;SDS011;36329;48.816;44.624;2023-09-30T02:21:14;11.1;;;4.3;;
49582;SDS011;36329;48.816;44.624;2023-09-30T02:24:16;11.2;;;4.4;;
49582;SDS011;36329;48.816;44.624;2023-09-30T02:27:18;14.1;;;5;;
49582;SDS011;36329;48.816;44.624;2023-09-30T02:30:20;11.8;;;4.3;;
49582;SDS011;36329;48.816;44.624;2023-09-30T02:33:21;12.8;;;4.4;;
49582;SDS011;36329;48.816;44.624;2023-09-30T02:36:23;11.2;;;4.6;;
49582;SDS011;36329;48.816;44.624;2023-09-30T02:39:25;8.7;;;4.5;;
49582;SDS011;36329;48.816;44.624;2023-09-30T02:42:27;13.8;;;4.8;;
49582;SDS011;36329;48.816;44.624;2023-09-30T02:45:29;12.1;;;4.5;;
49582;SDS011;36329;48.816;44.624;2023-09-30T02:48:31;12.3;;;4.5;;
49582;SDS011;36329;48.816;44.624;2023-09-30T02:51:33;13.5;;;4.5;;
49582;SDS011;36329;48.816;44.624;2023-09-30T02:54:34;11.3;;;4.5;;
49582;SDS011;36329;48.816;44.624;2023-09-30T02:57:36;12.4;;;4.5;;
49582;SDS011;36329;48.816;44.624;2023-09-30T03:00:39;15.7;;;4.9;;
49582;SDS011;36329;48.816;44.624;2023-09-30T03:03:41;11.4;;;4.4;;
49582;SDS011;36329;48.816;44.624;2023-09-30T03:06:48;20.1;;;5.5;;
49582;SDS011;36329;48.816;44.624;2023-09-30T03:09:50;11.6;;;4.7;;
49582;SDS011;36329;48.816;44.624;2023-09-30T03:12:52;13.8;;;4.7;;
49582;SDS011;36329;48.816;44.624;2023-09-30T03:15:54;17.9;;;4.8;;
49582;SDS011;36329;48.816;44.624;2023-09-30T03:18:56;13;;;4.8;;
49582;SDS011;36329;48.816;44.624;2023-09-30T03:21:58;16.3;;;5.2;;
49582;SDS011;36329;48.816;44.624;2023-09-30T03:25:00;11.8;;;4.8;;
49582;SDS011;36329;48.816;44.624;2023-09-30T03:28:02;14.9;;;5;;
49582;SDS011;36329;48.816;44.624;2023-09-30T03:31:04;15.2;;;4.7;;
49582;SDS011;36329;48.816;44.624;2023-09-30T03:34:07;16.4;;;4.9;;
49582;SDS011;36329;48.816;44.624;2023-09-30T03:37:08;11.9;;;4.6;;
49582;SDS011;36329;48.816;44.624;2023-09-30T03:40:10;18.9;;;5.8;;
49582;SDS011;36329;48.816;44.624;2023-09-30T03:43:13;24.6;;;6.3;;
49582;SDS011;36329;48.816;44.624;2023-09-30T03:46:15;20.8;;;5.9;;
49582;SDS011;36329;48.816;44.624;2023-09-30T03:49:16;23.8;;;6.1;;
49582;SDS011;36329;48.816;44.624;2023-09-30T03:52:18;22.5;;;6.5;;
49582;SDS011;36329;48.816;44.624;2023-09-30T03:55:20;26.5;;;6.9;;
49582;SDS011;36329;48.816;44.624;2023-09-30T03:58:22;21.1;;;6;;
49582;SDS011;36329;48.816;44.624;2023-09-30T04:01:24;19.8;;;6.9;;
49582;SDS011;36329;48.816;44.624;2023-09-30T04:04:27;21.7;;;7.4;;
49582;SDS011;36329;48.816;44.624;2023-09-30T04:07:29;16.9;;;6.8;;
49582;SDS011;36329;48.816;44.624;2023-09-30T04:10:31;22.8;;;6.4;;
49582;SDS011;36329;48.816;44.624;2023-09-30T04:13:33;25;;;6.5;;
49582;SDS011;36329;48.816;44.624;2023-09-30T04:16:35;23.4;;;6.8;;
49582;SDS011;36329;48.816;44.624;2023-09-30T04:19:37;15.7;;;6;;
49582;SDS011;36329;48.816;44.624;2023-09-30T04:22:39;19.2;;;6.2;;
49582;SDS011;36329;48.816;44.624;2023-09-30T04:25:41;16;;;5.7;;
49582;SDS011;36329;48.816;44.624;2023-09-30T04:28:43;15.4;;;5.9;;
49582;SDS011;36329;48.816;44.624;2023-09-30T04:31:45;17.4;;;6;;
49582;SDS011;36329;48.816;44.624;2023-09-30T04:34:47;17.4;;;5.6;;
49582;SDS011;36329;48.816;44.624;2023-09-30T04:37:49;34.5;;;6.9;;
49582;SDS011;36329;48.816;44.624;2023-09-30T04:40:51;16.1;;;5.6;;
49582;SDS011;36329;48.816;44.624;2023-09-30T04:43:53;16.8;;;5.4;;
49582;SDS011;36329;48.816;44.624;2023-09-30T04:46:55;10.8;;;5.6;;
49582;SDS011;36329;48.816;44.624;2023-09-30T04:49:57;14.6;;;5.8;;
49582;SDS011;36329;48.816;44.624;2023-09-30T04:52:59;12.7;;;5.9;;
49582;SDS011;36329;48.816;44.624;2023-09-30T04:56:01;15;;;6.4;;
49582;SDS011;36329;48.816;44.624;2023-09-30T04:59:04;19.1;;;6.4;;
49582;SDS011;36329;48.816;44.624;2023-09-30T05:02:06;13.7;;;6.5;;
49582;SDS011;36329;48.816;44.624;2023-09-30T05:05:08;15.6;;;6.8;;
49582;SDS011;36329;48.816;44.624;2023-09-30T05:08:12;15.1;;;7;;
49582;SDS011;36329;48.816;44.624;2023-09-30T05:11:13;20.5;;;7;;
49582;SDS011;36329;48.816;44.624;2023-09-30T05:14:16;26.7;;;7;;
49582;SDS011;36329;48.816;44.624;2023-09-30T05:17:18;17;;;6.5;;
49582;SDS011;36329;48.816;44.624;2023-09-30T05:20:27;16.8;;;7.5;;
49582;SDS011;36329;48.816;44.624;2023-09-30T05:23:30;20.7;;;7.1;;
49582;SDS011;36329;48.816;44.624;2023-09-30T05:26:33;14;;;6.8;;
49582;SDS011;36329;48.816;44.624;2023-09-30T05:29:34;16;;;6.4;;
49582;SDS011;36329;48.816;44.624;2023-09-30T05:32:36;12.4;;;6.4;;
49582;SDS011;36329;48.816;44.624;2023-09-30T05:35:38;12.9;;;6.2;;
49582;SDS011;36329;48.816;44.624;2023-09-30T05:38:44;13.3;;;5.8;;
49582;SDS011;36329;48.816;44.624;2023-09-30T05:41:47;11.6;;;5;;
49582;SDS011;36329;48.816;44.624;2023-09-30T05:44:49;12.7;;;5;;
49582;SDS011;36329;48.816;44.624;2023-09-30T05:47:52;11.9;;;4.9;;
49582;SDS011;36329;48.816;44.624;2023-09-30T05:50:54;12.1;;;5;;
49582;SDS011;36329;48.816;44.624;2023-09-30T05:53:57;10.7;;;4.8;;
49582;SDS011;36329;48.816;44.624;2023-09-30T05:56:58;12.2;;;5.1;;
49582;SDS011;36329;48.816;44.624;2023-09-30T06:00:01;12.4;;;5.5;;
49582;SDS011;36329;48.816;44.624;2023-09-30T06:03:06;10.9;;;4.7;;
49582;SDS011;36329;48.816;44.624;2023-09-30T06:06:11;9.6;;;4.7;;
49582;SDS011;36329;48.816;44.624;2023-09-30T06:09:14;9.3;;;5.5;;
49582;SDS011;36329;48.816;44.624;2023-09-30T06:12:16;12.4;;;5;;
49582;SDS011;36329;48.816;44.624;2023-09-30T06:15:18;8.2;;;5.2;;
49582;SDS011;36329;48.816;44.624;2023-09-30T06:18:20;9.9;;;4.8;;
49582;SDS011;36329;48.816;44.624;2023-09-30T06:21:23;8.2;;;5;;
49582;SDS011;36329;48.816;44.624;2023-09-30T06:24:25;10.3;;;4.9;;
49582;SDS011;36329;48.816;44.624;2023-09-30T06:27:27;11.6;;;5.1;;
49582;SDS011;36329;48.816;44.624;2023-09-30T06:30:29;9.2;;;4.7;;
49582;SDS011;36329;48.816;44.624;2023-09-30T06:33:31;13.1;;;5;;
49582;SDS011;36329;48.816;44.624;2023-09-30T06:36:33;10.4;;;4.9;;
49582;SDS011;36329;48.816;44.624;2023-09-30T06:39:35;10;;;4.9;;
49582;SDS011;36329;48.816;44.624;2023-09-30T06:42:37;12.9;;;5.2;;
49582;SDS011;36329;48.816;44.624;2023-09-30T06:45:39;8.6;;;4.9;;
49582;SDS011;36329;48.816;44.624;2023-09-30T06:48:41;11;;;5.2;;
49582;SDS011;36329;48.816;44.624;2023-09-30T06:51:43;8.3;;;4.9;;
49582;SDS011;36329;48.816;44.624;2023-09-30T06:54:45;11.2;;;5;;
49582;SDS011;36329;48.816;44.624;2023-09-30T06:57:47;10.7;;;4.6;;
49582;SDS011;36329;48.816;44.624;2023-09-30T07:00:49;9.7;;;4.3;;
49582;SDS011;36329;48.816;44.624;2023-09-30T07:03:52;10.1;;;5;;
49582;SDS011;36329;48.816;44.624;2023-09-30T07:06:54;11.4;;;4.6;;
49582;SDS011;36329;48.816;44.624;2023-09-30T07:09:56;9;;;4.6;;
49582;SDS011;36329;48.816;44.624;2023-09-30T07:12:58;9.7;;;4.5;;
49582;SDS011;36329;48.816;44.624;2023-09-30T07:16:00;9.8;;;4.6;;
49582;SDS011;36329;48.816;44.624;2023-09-30T07:19:02;10.5;;;5.4;;
49582;SDS011;36329;48.816;44.624;2023-09-30T07:22:04;13.8;;;4.9;;
49582;SDS011;36329;48.816;44.624;2023-09-30T07:25:06;8.3;;;4.3;;
49582;SDS011;36329;48.816;44.624;2023-09-30T07:28:08;14.9;;;4.7;;
49582;SDS011;36329;48.816;44.624;2023-09-30T07:31:16;13.6;;;7.1;;
49582;SDS011;36329;48.816;44.624;2023-09-30T07:34:18;17.2;;;9.1;;
49582;SDS011;36329;48.816;44.624;2023-09-30T07:37:20;16.6;;;9.3;;
49582;SDS011;36329;48.816;44.624;2023-09-30T07:40:23;10.6;;;5.3;;
49582;SDS011;36329;48.816;44.624;2023-09-30T07:43:26;11.8;;;5;;
49582;SDS011;36329;48.816;44.624;2023-09-30T07:46:29;9.6;;;5.1;;
49582;SDS011;36329;48.816;44.624;2023-09-30T07:49:31;14.7;;;4.7;;
49582;SDS011;36329;48.816;44.624;2023-09-30T07:52:33;10.9;;;5.2;;
49582;SDS011;36329;48.816;44.624;2023-09-30T07:55:35;10.4;;;4.7;;
49582;SDS011;36329;48.816;44.624;2023-09-30T07:58:37;12.7;;;5.2;;
49582;SDS011;36329;48.816;44.624;2023-09-30T08:01:39;10.3;;;5.1;;
49582;SDS011;36329;48.816;44.624;2023-09-30T08:04:41;13.4;;;4.5;;
49582;SDS011;36329;48.816;44.624;2023-09-30T08:07:43;10.6;;;4.5;;
49582;SDS011;36329;48.816;44.624;2023-09-30T08:10:44;9.6;;;4.5;;
49582;SDS011;36329;48.816;44.624;2023-09-30T08:13:46;10.5;;;4.9;;
49582;SDS011;36329;48.816;44.624;2023-09-30T08:16:48;9.5;;;4.7;;
49582;SDS011;36329;48.816;44.624;2023-09-30T08:19:51;13.3;;;5.3;;
49582;SDS011;36329;48.816;44.624;2023-09-30T08:22:53;10.6;;;4.8;;
49582;SDS011;36329;48.816;44.624;2023-09-30T08:25:57;12;;;4.5;;
49582;SDS011;36329;48.816;44.624;2023-09-30T08:28:59;11.5;;;4.9;;
49582;SDS011;36329;48.816;44.624;2023-09-30T08:32:02;8.3;;;4.7;;
49582;SDS011;36329;48.816;44.624;2023-09-30T08:35:05;10.4;;;4.9;;
49582;SDS011;36329;48.816;44.624;2023-09-30T08:38:07;22.3;;;5.7;;
49582;SDS011;36329;48.816;44.624;2023-09-30T08:41:09;15.2;;;5.5;;
49582;SDS011;36329;48.816;44.624;2023-09-30T08:44:11;11.3;;;5.5;;
49582;SDS011;36329;48.816;44.624;2023-09-30T08:47:13;13.8;;;5.3;;
49582;SDS011;36329;48.816;44.624;2023-09-30T08:50:16;10.6;;;5.2;;
49582;SDS011;36329;48.816;44.624;2023-09-30T08:53:18;10.2;;;4.6;;
49582;SDS011;36329;48.816;44.624;2023-09-30T08:56:22;11.1;;;4.5;;
49582;SDS011;36329;48.816;44.624;2023-09-30T08:59:26;11.5;;;4.3;;
49582;SDS011;36329;48.816;44.624;2023-09-30T09:02:29;9.2;;;4;;
49582;SDS011;36329;48.816;44.624;2023-09-30T09:05:31;8.4;;;4.5;;
49582;SDS011;36329;48.816;44.624;2023-09-30T09:08:32;14.9;;;12;;
49582;SDS011;36329;48.816;44.624;2023-09-30T09:11:36;9.2;;;6.2;;
49582;SDS011;36329;48.816;44.624;2023-09-30T09:14:39;7.3;;;4.9;;
49582;SDS011;36329;48.816;44.624;2023-09-30T09:17:42;9.9;;;4.1;;
49582;SDS011;36329;48.816;44.624;2023-09-30T09:20:45;9.7;;;4.8;;
49582;SDS011;36329;48.816;44.624;2023-09-30T09:23:47;9;;;6;;
49582;SDS011;36329;48.816;44.624;2023-09-30T09:26:50;8.3;;;3.8;;
49582;SDS011;36329;48.816;44.624;2023-09-30T09:29:52;5.5;;;3.3;;
49582;SDS011;36329;48.816;44.624;2023-09-30T09:32:55;6.1;;;3.6;;
49582;SDS011;36329;48.816;44.624;2023-09-30T09:36:01;8.5;;;4.2;;
49582;SDS011;36329;48.816;44.624;2023-09-30T09:39:03;9.6;;;4.1;;
49582;SDS011;36329;48.816;44.624;2023-09-30T09:42:05;7;;;3.8;;
49582;SDS011;36329;48.816;44.624;2023-09-30T09:45:07;8.4;;;4.2;;
49582;SDS011;36329;48.816;44.624;2023-09-30T09:48:09;10.7;;;5.1;;
49582;SDS011;36329;48.816;44.624;2023-09-30T09:51:11;9.6;;;4.5;;
49582;SDS011;36329;48.816;44.624;2023-09-30T09:54:15;7.8;;;3.8;;
49582;SDS011;36329;48.816;44.624;2023-09-30T09:57:18;7.1;;;3.4;;
49582;SDS011;36329;48.816;44.624;2023-09-30T10:00:21;7;;;4.4;;
49582;SDS011;36329;48.816;44.624;2023-09-30T10:03:24;9.8;;;5.6;;
49582;SDS011;36329;48.816;44.624;2023-09-30T10:06:26;8.9;;;5;;
49582;SDS011;36329;48.816;44.624;2023-09-30T10:09:28;10;;;3.9;;
49582;SDS011;36329;48.816;44.624;2023-09-30T10:12:36;24.9;;;4.7;;
49582;SDS011;36329;48.816;44.624;2023-09-30T10:15:39;10.8;;;3.9;;
49582;SDS011;36329;48.816;44.624;2023-09-30T10:28:37;12.1;;;4.2;;
49582;SDS011;36329;48.816;44.624;2023-09-30T10:31:49;8.2;;;3.9;;
49582;SDS011;36329;48.816;44.624;2023-09-30T10:34:52;8;;;3.9;;
49582;SDS011;36329;48.816;44.624;2023-09-30T10:38:36;10.4;;;4.1;;
49582;SDS011;36329;48.816;44.624;2023-09-30T10:44:49;9.9;;;4.2;;
49582;SDS011;36329;48.816;44.624;2023-09-30T10:47:50;10.2;;;4.3;;
49582;SDS011;36329;48.816;44.624;2023-09-30T10:50:53;11.1;;;4;;
49582;SDS011;36329;48.816;44.624;2023-09-30T10:54:01;6.8;;;4.4;;
49582;SDS011;36329;48.816;44.624;2023-09-30T10:57:03;13.2;;;4.3;;
49582;SDS011;36329;48.816;44.624;2023-09-30T11:00:09;8.7;;;4.3;;
49582;SDS011;36329;48.816;44.624;2023-09-30T11:03:11;8.4;;;4.4;;
49582;SDS011;36329;48.816;44.624;2023-09-30T11:06:13;10.8;;;4.3;;
49582;SDS011;36329;48.816;44.624;2023-09-30T11:09:16;9.6;;;4.1;;
49582;SDS011;36329;48.816;44.624;2023-09-30T11:12:19;7.9;;;3.9;;
49582;SDS011;36329;48.816;44.624;2023-09-30T11:15:21;10.4;;;3.6;;
49582;SDS011;36329;48.816;44.624;2023-09-30T11:18:23;8.6;;;3.5;;
49582;SDS011;36329;48.816;44.624;2023-09-30T11:21:25;9.8;;;3.7;;
49582;SDS011;36329;48.816;44.624;2023-09-30T11:24:27;7.8;;;3.5;;
49582;SDS011;36329;48.816;44.624;2023-09-30T11:27:29;7.8;;;3.4;;
49582;SDS011;36329;48.816;44.624;2023-09-30T11:30:30;7;;;3.6;;
49582;SDS011;36329;48.816;44.624;2023-09-30T11:33:32;9;;;3.5;;
49582;SDS011;36329;48.816;44.624;2023-09-30T11:36:49;7.9;;;3.7;;
49582;SDS011;36329;48.816;44.624;2023-09-30T11:39:52;7.1;;;3.9;;
49582;SDS011;36329;48.816;44.624;2023-09-30T11:46:11;10.9;;;3.5;;
49582;SDS011;36329;48.816;44.624;2023-09-30T11:49:13;7.5;;;3.9;;
49582;SDS011;36329;48.816;44.624;2023-09-30T11:52:27;8.4;;;3.6;;
49582;SDS011;36329;48.816;44.624;2023-09-30T11:55:29;13;;;4.1;;
49582;SDS011;36329;48.816;44.624;2023-09-30T11:58:33;7.9;;;4.2;;
49582;SDS011;36329;48.816;44.624;2023-09-30T12:01:35;8.4;;;3.8;;
49582;SDS011;36329;48.816;44.624;2023-09-30T12:04:37;8.7;;;3.6;;
49582;SDS011;36329;48.816;44.624;2023-09-30T12:07:39;11.2;;;3.9;;
49582;SDS011;36329;48.816;44.624;2023-09-30T12:10:41;9.9;;;4;;
49582;SDS011;36329;48.816;44.624;2023-09-30T12:13:43;8.8;;;3.7;;
49582;SDS011;36329;48.816;44.624;2023-09-30T12:16:45;9.7;;;3.8;;
49582;SDS011;36329;48.816;44.624;2023-09-30T12:19:47;8.5;;;3.9;;
49582;SDS011;36329;48.816;44.624;2023-09-30T12:22:49;12.3;;;4.7;;
49582;SDS011;36329;48.816;44.624;2023-09-30T12:25:51;6.6;;;3.9;;
49582;SDS011;36329;48.816;44.624;2023-09-30T12:28:53;9.6;;;4.1;;
49582;SDS011;36329;48.816;44.624;2023-09-30T12:31:55;10.4;;;4.2;;
49582;SDS011;36329;48.816;44.624;2023-09-30T12:34:57;9.4;;;4.2;;
49582;SDS011;36329;48.816;44.624;2023-09-30T12:37:59;12.2;;;4.1;;
49582;SDS011;36329;48.816;44.624;2023-09-30T12:41:01;9.8;;;4.3;;
49582;SDS011;36329;48.816;44.624;2023-09-30T12:44:03;9.3;;;4.2;;
49582;SDS011;36329;48.816;44.624;2023-09-30T12:47:05;9;;;4.3;;
49582;SDS011;36329;48.816;44.624;2023-09-30T12:50:07;7.9;;;3.8;;
49582;SDS011;36329;48.816;44.624;2023-09-30T12:53:09;8.9;;;4.1;;
49582;SDS011;36329;48.816;44.624;2023-09-30T12:56:11;13.3;;;4.1;;
49582;SDS011;36329;48.816;44.624;2023-09-30T12:59:13;8.3;;;4;;
49582;SDS011;36329;48.816;44.624;2023-09-30T13:02:15;5.5;;;3.5;;
49582;SDS011;36329;48.816;44.624;2023-09-30T13:05:17;9.3;;;4.1;;
49582;SDS011;36329;48.816;44.624;2023-09-30T13:08:19;6.8;;;3.9;;
49582;SDS011;36329;48.816;44.624;2023-09-30T13:11:21;9.2;;;4.8;;
49582;SDS011;36329;48.816;44.624;2023-09-30T13:14:23;8.7;;;4.3;;
49582;SDS011;36329;48.816;44.624;2023-09-30T13:17:25;9.5;;;4.1;;
49582;SDS011;36329;48.816;44.624;2023-09-30T13:20:27;10.9;;;4.6;;
49582;SDS011;36329;48.816;44.624;2023-09-30T13:23:29;11.2;;;4.7;;
49582;SDS011;36329;48.816;44.624;2023-09-30T13:26:31;9.3;;;4.8;;
49582;SDS011;36329;48.816;44.624;2023-09-30T13:29:33;8.5;;;4.3;;
49582;SDS011;36329;48.816;44.624;2023-09-30T13:32:35;8.4;;;4.3;;
49582;SDS011;36329;48.816;44.624;2023-09-30T13:35:37;10;;;4.9;;
49582;SDS011;36329;48.816;44.624;2023-09-30T13:38:39;9.2;;;5.3;;
49582;SDS011;36329;48.816;44.624;2023-09-30T13:41:41;12.2;;;4.6;;
49582;SDS011;36329;48.816;44.624;2023-09-30T13:44:42;14;;;5.3;;
49582;SDS011;36329;48.816;44.624;2023-09-30T13:47:44;13.5;;;5.5;;
49582;SDS011;36329;48.816;44.624;2023-09-30T13:50:46;15;;;5.7;;
49582;SDS011;36329;48.816;44.624;2023-09-30T13:53:49;11.9;;;5.2;;
49582;SDS011;36329;48.816;44.624;2023-09-30T13:56:51;13.7;;;5.4;;
49582;SDS011;36329;48.816;44.624;2023-09-30T13:59:53;10.9;;;5.5;;
49582;SDS011;36329;48.816;44.624;2023-09-30T14:02:55;14.3;;;5.5;;
49582;SDS011;36329;48.816;44.624;2023-09-30T14:05:56;11.9;;;4.7;;
49582;SDS011;36329;48.816;44.624;2023-09-30T14:08:58;15.1;;;5.1;;
49582;SDS011;36329;48.816;44.624;2023-09-30T14:12:00;11.4;;;4.9;;
49582;SDS011;36329;48.816;44.624;2023-09-30T14:15:02;9.7;;;4.9;;
49582;SDS011;36329;48.816;44.624;2023-09-30T14:18:05;8.1;;;4.6;;
49582;SDS011;36329;48.816;44.624;2023-09-30T14:21:07;11.4;;;5.1;;
49582;SDS011;36329;48.816;44.624;2023-09-30T14:24:09;13.1;;;5.2;;
49582;SDS011;36329;48.816;44.624;2023-09-30T14:27:11;11.2;;;5.2;;
49582;SDS011;36329;48.816;44.624;2023-09-30T14:30:13;9.9;;;4.8;;
49582;SDS011;36329;48.816;44.624;2023-09-30T14:33:15;11.7;;;5;;
49582;SDS011;36329;48.816;44.624;2023-09-30T14:36:17;14.3;;;5.3;;
49582;SDS011;36329;48.816;44.624;2023-09-30T14:39:19;11.7;;;5.2;;
49582;SDS011;36329;48.816;44.624;2023-09-30T14:42:21;11.1;;;5.2;;
49582;SDS011;36329;48.816;44.624;2023-09-30T14:45:23;13.1;;;5.2;;
49582;SDS011;36329;48.816;44.624;2023-09-30T14:48:25;12.5;;;5;;
49582;SDS011;36329;48.816;44.624;2023-09-30T14:51:27;11.7;;;7.4;;
49582;SDS011;36329;48.816;44.624;2023-09-30T14:54:29;15.8;;;8.6;;
49582;SDS011;36329;48.816;44.624;2023-09-30T14:57:31;18.1;;;9.4;;
49582;SDS011;36329;48.816;44.624;2023-09-30T15:00:33;16.3;;;8.2;;
49582;SDS011;36329;48.816;44.624;2023-09-30T15:03:35;11.8;;;7.4;;
49582;SDS011;36329;48.816;44.624;2023-09-30T15:06:37;9.7;;;5.6;;
49582;SDS011;36329;48.816;44.624;2023-09-30T15:09:39;13.7;;;6.1;;
49582;SDS011;36329;48.816;44.624;2023-09-30T15:12:41;13.6;;;5.9;;
49582;SDS011;36329;48.816;44.624;2023-09-30T15:15:43;13.3;;;6.4;;
49582;SDS011;36329;48.816;44.624;2023-09-30T15:18:45;16;;;6.6;;
49582;SDS011;36329;48.816;44.624;2023-09-30T15:21:48;13.4;;;7.1;;
49582;SDS011;36329;48.816;44.624;2023-09-30T15:24:49;15.2;;;7;;
49582;SDS011;36329;48.816;44.624;2023-09-30T15:27:51;16.3;;;7.2;;
49582;SDS011;36329;48.816;44.624;2023-09-30T15:30:53;14.4;;;7.1;;
49582;SDS011;36329;48.816;44.624;2023-09-30T15:33:55;16.9;;;7.9;;
49582;SDS011;36329;48.816;44.624;2023-09-30T15:36:58;16.7;;;8.2;;
49582;SDS011;36329;48.816;44.624;2023-09-30T15:39:59;14.5;;;7.9;;
49582;SDS011;36329;48.816;44.624;2023-09-30T15:43:01;18.3;;;8.3;;
49582;SDS011;36329;48.816;44.624;2023-09-30T15:46:04;19.5;;;9;;
49582;SDS011;36329;48.816;44.624;2023-09-30T15:49:06;15.9;;;9;;
49582;SDS011;36329;48.816;44.624;2023-09-30T15:52:08;19.8;;;8.7;;
49582;SDS011;36329;48.816;44.624;2023-09-30T15:55:10;16.2;;;8.9;;
49582;SDS011;36329;48.816;44.624;2023-09-30T15:58:12;16.4;;;9.2;;
49582;SDS011;36329;48.816;44.624;2023-09-30T16:01:14;14.8;;;9.2;;
49582;SDS011;36329;48.816;44.624;2023-09-30T16:04:16;18.5;;;8.7;;
49582;SDS011;36329;48.816;44.624;2023-09-30T16:07:18;18;;;9.3;;
49582;SDS011;36329;48.816;44.624;2023-09-30T16:10:20;15.7;;;9.2;;
49582;SDS011;36329;48.816;44.624;2023-09-30T16:13:22;25.5;;;8.7;;
49582;SDS011;36329;48.816;44.624;2023-09-30T16:16:24;20.7;;;9.2;;
49582;SDS011;36329;48.816;44.624;2023-09-30T16:19:26;18;;;8.7;;
49582;SDS011;36329;48.816;44.624;2023-09-30T16:22:28;17.4;;;8.7;;
49582;SDS011;36329;48.816;44.624;2023-09-30T16:25:30;21.3;;;10.2;;
49582;SDS011;36329;48.816;44.624;2023-09-30T16:28:32;16.1;;;9.1;;
49582;SDS011;36329;48.816;44.624;2023-09-30T16:31:34;18;;;8.7;;
49582;SDS011;36329;48.816;44.624;2023-09-30T16:34:36;18.8;;;9;;
49582;SDS011;36329;48.816;44.624;2023-09-30T16:37:38;13;;;7.8;;
49582;SDS011;36329;48.816;44.624;2023-09-30T16:40:41;18.2;;;7.6;;
49582;SDS011;36329;48.816;44.624;2023-09-30T16:43:48;16.2;;;8.1;;
49582;SDS011;36329;48.816;44.624;2023-09-30T16:46:50;17.2;;;7.5;;
49582;SDS011;36329;48.816;44.624;2023-09-30T16:49:52;13.2;;;7.8;;
49582;SDS011;36329;48.816;44.624;2023-09-30T16:52:54;16.2;;;7.8;;
49582;SDS011;36329;48.816;44.624;2023-09-30T16:55:56;14.8;;;7.1;;
49582;SDS011;36329;48.816;44.624;2023-09-30T16:59:03;14.2;;;7.5;;
49582;SDS011;36329;48.816;44.624;2023-09-30T17:02:06;14.3;;;7.1;;
49582;SDS011;36329;48.816;44.624;2023-09-30T17:05:08;14.5;;;7.3;;
49582;SDS011;36329;48.816;44.624;2023-09-30T17:08:10;12.2;;;6.9;;
49582;SDS011;36329;48.816;44.624;2023-09-30T17:11:17;13.3;;;6.8;;
49582;SDS011;36329;48.816;44.624;2023-09-30T17:14:20;12.8;;;6.5;;
49582;SDS011;36329;48.816;44.624;2023-09-30T17:17:22;14.8;;;6.7;;
49582;SDS011;36329;48.816;44.624;2023-09-30T17:20:24;13.4;;;6.5;;
49582;SDS011;36329;48.816;44.624;2023-09-30T17:23:26;13.6;;;6.2;;
49582;SDS011;36329;48.816;44.624;2023-09-30T17:26:28;10.7;;;5.8;;
49582;SDS011;36329;48.816;44.624;2023-09-30T17:29:29;9.5;;;5.4;;
49582;SDS011;36329;48.816;44.624;2023-09-30T17:32:31;12.9;;;5.7;;
49582;SDS011;36329;48.816;44.624;2023-09-30T17:35:36;13.8;;;5.7;;
49582;SDS011;36329;48.816;44.624;2023-09-30T17:38:38;10.8;;;5.4;;
49582;SDS011;36329;48.816;44.624;2023-09-30T17:41:40;11.2;;;5.3;;
49582;SDS011;36329;48.816;44.624;2023-09-30T17:44:42;11.9;;;6;;
49582;SDS011;36329;48.816;44.624;2023-09-30T17:47:44;12.5;;;5.9;;
49582;SDS011;36329;48.816;44.624;2023-09-30T17:50:46;10.8;;;5.1;;
49582;SDS011;36329;48.816;44.624;2023-09-30T17:53:48;13.3;;;5.7;;
49582;SDS011;36329;48.816;44.624;2023-09-30T17:56:50;14.1;;;5.5;;
49582;SDS011;36329;48.816;44.624;2023-09-30T17:59:52;13.5;;;5.3;;
49582;SDS011;36329;48.816;44.624;2023-09-30T18:02:54;13.3;;;4.5;;
49582;SDS011;36329;48.816;44.624;2023-09-30T18:06:03;6.7;;;3.8;;
49582;SDS011;36329;48.816;44.624;2023-09-30T18:09:06;11.6;;;3.9;;
49582;SDS011;36329;48.816;44.624;2023-09-30T18:12:08;8.7;;;4;;
49582;SDS011;36329;48.816;44.624;2023-09-30T18:15:10;10.1;;;4.1;;
49582;SDS011;36329;48.816;44.624;2023-09-30T18:18:12;10.4;;;4.2;;
49582;SDS011;36329;48.816;44.624;2023-09-30T18:21:14;11;;;4.3;;
49582;SDS011;36329;48.816;44.624;2023-09-30T18:24:16;11.3;;;4.6;;
49582;SDS011;36329;48.816;44.624;2023-09-30T18:27:18;13;;;4.8;;
49582;SDS011;36329;48.816;44.624;2023-09-30T18:30:20;10;;;4.9;;
49582;SDS011;36329;48.816;44.624;2023-09-30T18:33:22;14.7;;;4.9;;
49582;SDS011;36329;48.816;44.624;2023-09-30T18:36:24;15.7;;;4.9;;
49582;SDS011;36329;48.816;44.624;2023-09-30T18:39:26;12;;;4.5;;
49582;SDS011;36329;48.816;44.624;2023-09-30T18:42:28;10.2;;;4.7;;
49582;SDS011;36329;48.816;44.624;2023-09-30T18:45:30;12.3;;;4.7;;
49582;SDS011;36329;48.816;44.624;2023-09-30T18:48:33;12.8;;;4.7;;